Aérodrome :
LOGIN :

S'inscrire | Disclaimer

   EN    FR    IT 

 










Légende :    VFR   VFR Marginal   IFR   IFR Intensif   IFR Très Intensif
Visi : 
Plafond : 
>= 8 km
>= 3000ft
5 à 8 km
1000 à 3000 ft
1500m à 5 km
500 à 1000 ft
800 à 1500m
200 à 500 ft
< 800m
< 200 ft
Symboles :   Orages  Brouillard  Fortes neiges  Fortes précipitations  Vent > 20 kt
SIGMETs :   Divers  Orages  Givrage  Turbulence  Onde Orograph.  Cendres Volcan.







- Altitude de l'aérodrome : 76 ft
- Code IATA : KID


ESMK - Kristianstad

DERNIER METAR :
  • 220550Z 32005KT 1600 BR VV003 13/13 Q1009

METARs EXPIRÉS :
  • 220520Z 30005KT 0900 R01/1200U R19/1600U FG VV002 13/13 Q1009
  • 220450Z 33004KT 290V350 0650 R01/1200D R19/1300U FG VV002 13/13 Q1008
  • 220420Z VRB02KT 0550 R01/1100D R19/1400D FG VV002 13/13 Q1008
  • 220350Z 00000KT 0350 R01/0900N R19/1000N VV002 13/13 Q1009
  • 220320Z VRB02KT 0250 R01/0650N R19/0700N FG VV002 12/12 Q1008

TAF TAF ESMK
Valide du 22 à 06h jusqu'au 22 à 15h UTC


220511Z 2206/2215 VRB02KT 0600 FG VV002
BECMG 2206/2208 30010KT 7000 NSW BKN005
BECMG 2210/2212 SCT008
Pas de NOTAMs connus pour ce terrain.



MET'MAP, la Météo Aéronautique d'un coup d'oeil ! - Copyright ORBIFLY Décembre 2007 - Disclaimer

ORBIFLY MET'MAP TEAM :

Programmation & Développement : Alexandra Zaïnal
Conception & Développement : Baudouin d'Aumeries
Co-Programmation & Développement : Marc-Olivier Méhu
Soutien technique & logistique : Manuel Goepfert

Contact : metmap@orbifly.com




SOURCES & CREDITS :

   NOAA